UGSB/BUS METAR and TAF weather

Enter ICAO airport designator
Station Type Date Time Source
UGSB METAR 2019/10/15 19:30 UTC NOAA

UGSB 151930Z 12009KT 9999 FEW016 15/14 Q1020 NOSIG


Station Type Date Time Source
UGSB Decoded METAR 2019/10/15 19:30 UTC NOAA

Station name not available
Oct 15, 2019 - 03:30 PM EDT / 2019.10.15 1930 UTC
Wind: from the ESE (120 degrees) at 10 MPH (9 KT):0
Visibility: greater than 7 mile(s):0
Sky conditions: mostly clear
Temperature: 59 F (15 C)
Dew Point: 57 F (14 C)
Relative Humidity: 93%
Pressure (altimeter): 30.12 in. Hg (1020 hPa)
ob: UGSB 151930Z 12009KT 9999 FEW016 15/14 Q1020 NOSIG
cycle: 19

Station Type Date Time Source
UGSB TAF 2019/10/15 18:08 UTC NOAA

TAF UGSB 151700Z 1518/1618 13013KT CAVOK TX23/1611Z TN13/1601Z
TEMPO 1518/1523 VRB02KT SCT015
BECMG 1606/1608 27007KT

Example: see airport list